createdAt,value
2023-05-09T04:00:36.147Z,58.83
2023-05-09T04:01:39.529Z,58.83
2023-05-09T04:02:37.274Z,58.92
2023-05-09T04:03:37.194Z,59.13
2023-05-09T04:04:37.096Z,59.03
2023-05-09T04:05:37.100Z,59.23
2023-05-09T04:06:37.085Z,59.23
2023-05-09T04:07:37.095Z,59.54
2023-05-09T04:08:37.103Z,59.23
2023-05-09T04:09:37.052Z,59.13
2023-05-09T04:10:37.041Z,59.13
2023-05-09T04:11:37.043Z,59.34
2023-05-09T04:12:37.023Z,59.44
2023-05-09T04:13:37.003Z,59.23
2023-05-09T04:14:36.983Z,59.44
2023-05-09T04:15:36.978Z,59.54
2023-05-09T04:16:37.027Z,60.05
2023-05-09T04:17:36.979Z,59.54
2023-05-09T04:18:36.994Z,59.85
2023-05-09T04:19:36.946Z,59.54
2023-05-09T04:20:36.914Z,59.54
2023-05-09T04:21:36.914Z,59.64
2023-05-09T04:22:36.897Z,59.54
2023-05-09T04:23:36.893Z,59.64
2023-05-09T04:24:36.939Z,59.64
2023-05-09T04:25:36.883Z,59.54
2023-05-09T04:26:36.882Z,59.54
2023-05-09T04:27:36.873Z,59.75
2023-05-09T04:28:36.872Z,59.64
2023-05-09T04:29:36.813Z,59.75
2023-05-09T04:30:36.857Z,60.05
2023-05-09T04:31:36.921Z,59.85
2023-05-09T04:32:36.851Z,59.85
2023-05-09T04:33:36.801Z,60.05
2023-05-09T04:34:36.766Z,59.85
2023-05-09T04:35:36.759Z,59.85
2023-05-09T04:36:36.753Z,59.72
2023-05-09T04:37:36.729Z,59.82
2023-05-09T04:38:36.737Z,59.62
2023-05-09T04:39:36.743Z,59.82
2023-05-09T04:40:36.691Z,59.85
2023-05-09T04:41:36.699Z,59.82
2023-05-09T04:42:36.825Z,59.72
2023-05-09T04:43:36.767Z,59.75
2023-05-09T04:44:36.661Z,59.85
2023-05-09T04:45:36.631Z,59.95
2023-05-09T04:46:36.756Z,60.16
2023-05-09T04:47:36.625Z,60.16
2023-05-09T04:48:36.617Z,60.26
2023-05-09T04:49:36.609Z,60.16
2023-05-09T04:50:36.619Z,60.44
2023-05-09T04:51:36.573Z,60.23
2023-05-09T04:52:36.604Z,60.03
2023-05-09T04:53:36.577Z,60.13
2023-05-09T04:54:36.550Z,60.03
2023-05-09T04:55:36.545Z,59.92
2023-05-09T04:56:36.524Z,59.92
2023-05-09T04:57:36.517Z,59.82
2023-05-09T04:58:36.520Z,59.92
2023-05-09T04:59:36.487Z,59.62
2023-05-09T05:00:36.502Z,59.82
2023-05-09T05:01:36.495Z,59.72
2023-05-09T05:02:36.551Z,59.41
2023-05-09T05:03:36.459Z,59.62
2023-05-09T05:04:36.463Z,59.59
2023-05-09T05:05:37.608Z,59.62
2023-05-09T05:06:36.428Z,59.48
2023-05-09T05:07:36.407Z,59.48
2023-05-09T05:08:36.388Z,59.38
2023-05-09T05:09:36.721Z,59.38
2023-05-09T05:10:36.370Z,58.97
2023-05-09T05:11:36.374Z,58.87
2023-05-09T05:12:36.349Z,58.97
2023-05-09T05:13:36.357Z,58.87
2023-05-09T05:14:36.361Z,58.67
2023-05-09T05:15:36.326Z,58.87
2023-05-09T05:16:36.386Z,58.77
2023-05-09T05:17:36.331Z,58.67
2023-05-09T05:18:36.281Z,58.67
2023-05-09T05:19:36.277Z,58.44
2023-05-09T05:20:36.267Z,58.12
2023-05-09T05:21:36.251Z,58.23
2023-05-09T05:22:36.278Z,58.33
2023-05-09T05:23:36.223Z,58.23
2023-05-09T05:24:36.234Z,57.82
2023-05-09T05:25:36.236Z,58.03
2023-05-09T05:26:36.205Z,57.61
2023-05-09T05:27:36.186Z,57.51
2023-05-09T05:28:36.186Z,57.38
2023-05-09T05:29:36.163Z,57.41
2023-05-09T05:30:36.141Z,57.38
2023-05-09T05:31:36.170Z,57.18
2023-05-09T05:32:36.230Z,57.28
2023-05-09T05:33:36.105Z,57.28
2023-05-09T05:34:36.107Z,56.74
2023-05-09T05:35:36.127Z,56.77
2023-05-09T05:36:36.092Z,56.95
2023-05-09T05:37:36.060Z,56.95
2023-05-09T05:38:36.074Z,56.95
2023-05-09T05:39:36.077Z,56.64
2023-05-09T05:40:36.063Z,56.23
2023-05-09T05:41:36.072Z,55.69
2023-05-09T05:42:36.128Z,55.90
2023-05-09T05:43:36.027Z,56.10
2023-05-09T05:44:36.003Z,55.90
2023-05-09T05:45:36.020Z,55.69
2023-05-09T05:46:35.975Z,55.08
2023-05-09T05:47:36.005Z,55.36
2023-05-09T05:48:36.094Z,55.66
2023-05-09T05:49:35.989Z,55.26
2023-05-09T05:50:35.933Z,55.66
2023-05-09T05:51:35.906Z,55.05
2023-05-09T05:52:35.917Z,55.33
2023-05-09T05:53:35.874Z,54.92
2023-05-09T05:54:35.888Z,54.10
2023-05-09T05:55:35.865Z,54.21
2023-05-09T05:56:35.852Z,54.31
2023-05-09T05:57:35.853Z,54.41
2023-05-09T05:58:35.868Z,53.49
2023-05-09T05:59:35.832Z,53.90
2023-05-09T06:00:35.802Z,54.00
2023-05-09T06:01:35.795Z,53.90
2023-05-09T06:02:35.845Z,53.77
2023-05-09T06:03:35.839Z,53.67
2023-05-09T06:04:35.788Z,53.36
2023-05-09T06:05:35.739Z,53.67
2023-05-09T06:06:35.752Z,53.47
2023-05-09T06:07:35.738Z,53.77
2023-05-09T06:08:35.752Z,53.26
2023-05-09T06:09:35.743Z,53.06
2023-05-09T06:10:35.724Z,53.36
2023-05-09T06:11:35.703Z,53.16
2023-05-09T06:12:35.682Z,53.23
2023-05-09T06:13:35.669Z,53.13
2023-05-09T06:14:35.689Z,52.11
2023-05-09T06:15:35.641Z,52.01
2023-05-09T06:16:35.713Z,52.22
2023-05-09T06:17:35.700Z,52.32
2023-05-09T06:18:35.616Z,52.22
2023-05-09T06:19:35.622Z,52.42
2023-05-09T06:20:35.624Z,52.62
2023-05-09T06:21:35.614Z,52.42
2023-05-09T06:22:35.572Z,52.22
2023-05-09T06:23:35.550Z,52.39
2023-05-09T06:24:36.460Z,51.89
2023-05-09T06:25:35.553Z,52.19
2023-05-09T06:26:35.539Z,51.96
2023-05-09T06:27:35.520Z,51.45
2023-05-09T06:28:35.529Z,50.51
2023-05-09T06:29:35.526Z,50.18
2023-05-09T06:30:35.523Z,49.95
2023-05-09T06:31:35.512Z,49.95
2023-05-09T06:32:35.481Z,49.11
2023-05-09T06:33:35.446Z,48.60
2023-05-09T06:34:35.443Z,48.81
2023-05-09T06:35:35.433Z,48.50
2023-05-09T06:36:35.421Z,47.87
2023-05-09T06:37:35.471Z,47.64
2023-05-09T06:38:35.403Z,47.54
2023-05-09T06:39:35.383Z,46.83
2023-05-09T06:40:35.367Z,46.60
2023-05-09T06:41:35.363Z,46.60
2023-05-09T06:42:35.352Z,46.81
2023-05-09T06:43:35.374Z,47.44
2023-05-09T06:44:35.321Z,47.64
2023-05-09T06:45:35.495Z,47.85
2023-05-09T06:46:35.402Z,47.21
2023-05-09T06:47:35.339Z,46.89
2023-05-09T06:48:35.309Z,45.84
2023-05-09T06:49:35.268Z,45.11
2023-05-09T06:50:35.272Z,44.93
2023-05-09T06:51:35.248Z,45.24
2023-05-09T06:52:35.231Z,45.34
2023-05-09T06:53:35.234Z,45.11
2023-05-09T06:54:35.213Z,44.91
2023-05-09T06:55:35.216Z,44.81
2023-05-09T06:56:35.197Z,44.79
2023-05-09T06:57:35.172Z,44.79
2023-05-09T06:58:35.182Z,44.26
2023-05-09T06:59:35.177Z,44.18
2023-05-09T07:00:35.149Z,44.59
2023-05-09T07:01:35.174Z,44.59
2023-05-09T07:02:35.140Z,44.48
2023-05-09T07:03:35.114Z,44.60
2023-05-09T07:04:35.169Z,44.51
2023-05-09T07:05:35.142Z,44.51
2023-05-09T07:06:35.094Z,44.40
2023-05-09T07:07:35.062Z,44.38
2023-05-09T07:08:35.078Z,43.79
2023-05-09T07:09:35.055Z,44.10
2023-05-09T07:10:35.053Z,44.42
2023-05-09T07:11:35.142Z,43.99
2023-05-09T07:12:35.030Z,43.59
2023-05-09T07:13:35.012Z,43.49
2023-05-09T07:14:35.087Z,43.16
2023-05-09T07:15:41.847Z,43.47
2023-05-09T07:16:37.388Z,43.47
2023-05-09T07:17:34.981Z,43.37
2023-05-09T07:18:34.954Z,43.44
2023-05-09T07:19:34.958Z,43.24
2023-05-09T07:20:34.970Z,43.35
2023-05-09T07:21:34.918Z,43.02
2023-05-09T07:22:37.194Z,43.02
2023-05-09T07:23:34.885Z,42.90
2023-05-09T07:24:34.879Z,43.23
2023-05-09T07:25:34.877Z,43.85
2023-05-09T07:26:34.858Z,44.51
2023-05-09T07:27:34.851Z,45.34
2023-05-09T07:28:34.830Z,45.24
2023-05-09T07:29:34.821Z,45.21
2023-05-09T07:30:34.847Z,44.97
2023-05-09T07:31:37.215Z,43.93
2023-05-09T07:32:34.816Z,43.32
2023-05-09T07:33:34.800Z,43.96
2023-05-09T07:34:34.763Z,44.24
2023-05-09T07:35:34.783Z,43.61
2023-05-09T07:36:35.486Z,42.27
2023-05-09T07:37:34.747Z,42.61
2023-05-09T07:38:34.727Z,43.12
2023-05-09T07:39:34.726Z,42.60
2023-05-09T07:40:34.704Z,41.95
2023-05-09T07:41:34.703Z,41.22
2023-05-09T07:42:34.723Z,40.91
2023-05-09T07:43:34.671Z,40.71
2023-05-09T07:44:34.649Z,41.24
2023-05-09T07:45:34.770Z,41.74
2023-05-09T07:46:34.631Z,42.25
2023-05-09T07:47:34.672Z,41.02
2023-05-09T07:48:34.613Z,40.29
2023-05-09T07:49:34.605Z,39.46
2023-05-09T07:50:34.615Z,39.46
2023-05-09T07:51:34.600Z,39.14
2023-05-09T07:52:34.575Z,39.04
2023-05-09T07:53:34.581Z,38.95
2023-05-09T07:54:34.545Z,39.28
2023-05-09T07:55:34.542Z,39.68
2023-05-09T07:56:34.530Z,39.68
2023-05-09T07:57:34.523Z,39.17
2023-05-09T07:58:34.508Z,38.77
2023-05-09T07:59:34.516Z,37.86
2023-05-09T08:00:34.495Z,37.98
2023-05-09T08:01:34.477Z,38.39
2023-05-09T08:02:34.624Z,38.48
2023-05-09T08:03:34.527Z,39.64
2023-05-09T08:04:34.564Z,40.14
2023-05-09T08:05:34.433Z,40.65
2023-05-09T08:06:34.405Z,39.42
2023-05-09T08:07:34.424Z,38.89
2023-05-09T08:08:34.417Z,37.98
2023-05-09T08:09:34.380Z,39.25
2023-05-09T08:10:34.392Z,39.78
2023-05-09T08:11:34.374Z,40.30
2023-05-09T08:12:34.337Z,40.40
2023-05-09T08:13:34.350Z,40.81
2023-05-09T08:14:34.328Z,41.11
2023-05-09T08:15:34.339Z,41.52
2023-05-09T08:16:34.367Z,39.37
2023-05-09T08:17:34.317Z,39.55
2023-05-09T08:18:34.268Z,40.24
2023-05-09T08:19:34.283Z,40.34
2023-05-09T08:20:34.251Z,39.43
2023-05-09T08:21:34.284Z,40.24
2023-05-09T08:22:34.224Z,39.53
2023-05-09T08:23:34.250Z,39.86
2023-05-09T08:24:34.225Z,38.60
2023-05-09T08:25:34.215Z,38.52
2023-05-09T08:26:34.199Z,39.15
2023-05-09T08:27:34.190Z,39.87
2023-05-09T08:28:34.186Z,40.28
2023-05-09T08:29:34.171Z,40.28
2023-05-09T08:30:34.155Z,39.75
2023-05-09T08:31:34.210Z,38.72
2023-05-09T08:32:34.172Z,38.62
2023-05-09T08:33:34.114Z,38.62
2023-05-09T08:34:34.123Z,38.30
2023-05-09T08:35:34.101Z,38.30
2023-05-09T08:36:34.104Z,38.60
2023-05-09T08:37:34.097Z,39.01
2023-05-09T08:38:34.069Z,38.39
2023-05-09T08:39:34.054Z,37.47
2023-05-09T08:40:34.080Z,37.88
2023-05-09T08:41:34.080Z,37.88
2023-05-09T08:42:34.023Z,37.88
2023-05-09T08:43:34.048Z,38.28
2023-05-09T08:44:34.001Z,37.47
2023-05-09T08:45:33.975Z,37.27
2023-05-09T08:46:34.042Z,37.67
2023-05-09T08:47:33.998Z,37.67
2023-05-09T08:48:35.923Z,37.55
2023-05-09T08:49:33.944Z,37.86
2023-05-09T08:50:33.921Z,37.67
2023-05-09T08:51:33.916Z,37.55
2023-05-09T08:52:33.903Z,36.74
2023-05-09T08:53:33.898Z,37.16
2023-05-09T08:54:33.888Z,37.59
2023-05-09T08:55:33.874Z,37.99
2023-05-09T08:56:33.873Z,38.08
2023-05-09T08:57:33.845Z,37.88
2023-05-09T08:58:33.837Z,37.77
2023-05-09T08:59:33.824Z,37.98
2023-05-09T09:00:33.821Z,37.57
2023-05-09T09:01:33.884Z,38.18
2023-05-09T09:02:33.846Z,37.88
2023-05-09T09:03:33.785Z,37.96
2023-05-09T09:04:33.791Z,37.96
2023-05-09T09:05:41.205Z,37.96
2023-05-09T09:06:33.753Z,38.04
2023-05-09T09:07:33.739Z,37.55
2023-05-09T09:08:33.733Z,38.16
2023-05-09T09:09:33.743Z,38.37
2023-05-09T09:10:33.719Z,37.15
2023-05-09T09:11:33.743Z,36.63
2023-05-09T09:12:33.689Z,36.10
2023-05-09T09:13:33.750Z,35.82
2023-05-09T09:14:33.655Z,35.80
2023-05-09T09:15:33.652Z,35.90
2023-05-09T09:16:33.664Z,36.54
2023-05-09T09:17:33.656Z,36.43
2023-05-09T09:18:33.608Z,36.41
2023-05-09T09:19:33.628Z,35.38
2023-05-09T09:20:33.585Z,35.28
2023-05-09T09:21:33.607Z,35.17
2023-05-09T09:22:33.573Z,34.17
2023-05-09T09:23:33.554Z,34.35
2023-05-09T09:24:33.587Z,34.54
2023-05-09T09:25:33.539Z,33.84
2023-05-09T09:26:33.567Z,34.55
2023-05-09T09:27:33.515Z,35.08
2023-05-09T09:28:33.504Z,35.90
2023-05-09T09:29:33.496Z,36.41
2023-05-09T09:30:33.473Z,36.08
2023-05-09T09:31:33.566Z,36.00
2023-05-09T09:32:33.508Z,35.99
2023-05-09T09:33:33.444Z,35.66
2023-05-09T09:34:33.506Z,35.77
2023-05-09T09:35:33.430Z,35.75
2023-05-09T09:36:33.473Z,34.54
2023-05-09T09:37:33.414Z,35.03
2023-05-09T09:38:33.398Z,35.46
2023-05-09T09:39:34.143Z,35.97
2023-05-09T09:40:33.379Z,35.24
2023-05-09T09:41:33.480Z,34.01
2023-05-09T09:42:33.367Z,34.86
2023-05-09T09:43:33.339Z,34.75
2023-05-09T09:44:33.325Z,33.83
2023-05-09T09:45:33.336Z,34.13
2023-05-09T09:46:33.411Z,34.22
2023-05-09T09:47:33.371Z,34.54
2023-05-09T09:48:33.470Z,34.64
2023-05-09T09:49:33.272Z,34.66
2023-05-09T09:50:33.254Z,34.74
2023-05-09T09:51:33.263Z,34.13
2023-05-09T09:52:33.243Z,34.23
2023-05-09T09:53:33.238Z,34.25
2023-05-09T09:54:33.210Z,34.55
2023-05-09T09:55:33.207Z,34.84
2023-05-09T09:56:33.208Z,35.04
2023-05-09T09:57:33.195Z,34.64
2023-05-09T09:58:33.174Z,34.64
2023-05-09T09:59:33.161Z,34.62
2023-05-09T10:00:33.144Z,34.92
2023-05-09T10:01:33.169Z,34.70
2023-05-09T10:02:33.165Z,34.39
2023-05-09T10:03:33.214Z,34.49
2023-05-09T10:04:33.100Z,33.90
2023-05-09T10:05:33.126Z,34.20
2023-05-09T10:06:33.082Z,34.30
2023-05-09T10:07:33.094Z,34.20
2023-05-09T10:08:33.062Z,34.49
2023-05-09T10:09:33.053Z,34.28
2023-05-09T10:10:33.059Z,33.98
2023-05-09T10:11:33.030Z,33.70
2023-05-09T10:12:33.043Z,33.92
2023-05-09T10:13:33.026Z,34.52
2023-05-09T10:14:35.165Z,34.00
2023-05-09T10:15:41.313Z,33.50
2023-05-09T10:16:43.039Z,33.48
2023-05-09T10:17:33.073Z,33.07
2023-05-09T10:18:33.116Z,33.28
2023-05-09T10:19:32.983Z,33.38
2023-05-09T10:20:32.930Z,33.19
2023-05-09T10:21:32.912Z,33.19
2023-05-09T10:22:33.018Z,33.59
2023-05-09T10:23:32.978Z,33.48
2023-05-09T10:24:32.877Z,32.87
2023-05-09T10:25:32.884Z,32.66
2023-05-09T10:26:32.924Z,32.24
2023-05-09T10:27:32.891Z,31.85
2023-05-09T10:28:32.847Z,32.35
2023-05-09T10:29:32.848Z,32.15
2023-05-09T10:30:34.093Z,32.54
2023-05-09T10:31:32.833Z,32.04
2023-05-09T10:32:32.817Z,31.62
2023-05-09T10:33:32.777Z,31.33
2023-05-09T10:34:32.770Z,31.84
2023-05-09T10:35:32.765Z,32.39
2023-05-09T10:36:32.741Z,32.67
2023-05-09T10:37:33.547Z,32.26
2023-05-09T10:38:32.714Z,32.35
2023-05-09T10:39:32.717Z,32.44
2023-05-09T10:40:32.699Z,32.54
2023-05-09T10:41:32.691Z,33.26
2023-05-09T10:42:32.695Z,32.75
2023-05-09T10:43:34.200Z,31.82
2023-05-09T10:44:32.652Z,31.72
2023-05-09T10:45:32.650Z,32.32
2023-05-09T10:46:32.735Z,32.21
2023-05-09T10:47:32.656Z,31.40
2023-05-09T10:48:32.613Z,31.02
2023-05-09T10:49:34.311Z,31.42
2023-05-09T10:50:32.590Z,31.73
2023-05-09T10:51:32.595Z,31.73
2023-05-09T10:52:32.557Z,31.84
2023-05-09T10:53:32.555Z,31.52
2023-05-09T10:54:32.545Z,31.84
2023-05-09T10:55:32.524Z,31.43
2023-05-09T10:56:32.538Z,31.65
2023-05-09T10:57:32.550Z,31.55
2023-05-09T10:58:32.507Z,31.85
2023-05-09T10:59:32.494Z,32.05
2023-05-09T11:00:32.548Z,32.04
2023-05-09T11:01:32.467Z,31.82
2023-05-09T11:02:32.620Z,31.69
2023-05-09T11:03:32.559Z,31.37
2023-05-09T11:04:32.448Z,30.94
2023-05-09T11:05:32.417Z,30.74
2023-05-09T11:06:32.399Z,30.54
2023-05-09T11:07:32.395Z,29.75
2023-05-09T11:08:32.395Z,30.05
2023-05-09T11:09:32.384Z,30.05
2023-05-09T11:10:32.404Z,30.38
2023-05-09T11:11:32.367Z,30.08
2023-05-09T11:12:32.347Z,29.66
2023-05-09T11:13:32.422Z,29.98
2023-05-09T11:14:32.401Z,29.97
2023-05-09T11:15:32.314Z,30.38
2023-05-09T11:16:32.307Z,31.62
2023-05-09T11:17:32.419Z,31.72
2023-05-09T11:18:32.293Z,32.01
2023-05-09T11:19:32.272Z,31.71
2023-05-09T11:20:32.280Z,31.81
2023-05-09T11:21:32.245Z,31.57
2023-05-09T11:22:32.303Z,31.16
2023-05-09T11:23:32.237Z,30.84
2023-05-09T11:24:32.256Z,30.64
2023-05-09T11:25:32.199Z,30.34
2023-05-09T11:26:32.187Z,30.74
2023-05-09T11:27:32.176Z,30.83
2023-05-09T11:28:32.195Z,30.11
2023-05-09T11:29:32.151Z,29.71
2023-05-09T11:30:32.145Z,30.01
2023-05-09T11:31:32.187Z,29.93
2023-05-09T11:32:32.186Z,30.35
2023-05-09T11:33:32.128Z,30.96
2023-05-09T11:34:32.103Z,30.55
2023-05-09T11:35:32.109Z,30.84
2023-05-09T11:36:32.093Z,30.35
2023-05-09T11:37:32.073Z,30.55
2023-05-09T11:38:32.066Z,30.55
2023-05-09T11:39:32.053Z,30.85
2023-05-09T11:40:32.041Z,30.76
2023-05-09T11:41:32.027Z,30.85
2023-05-09T11:42:32.010Z,30.94
2023-05-09T11:43:32.001Z,29.02
2023-05-09T11:44:31.993Z,29.31
2023-05-09T11:45:31.971Z,29.11
2023-05-09T11:46:32.048Z,29.63
2023-05-09T11:47:31.969Z,29.53
2023-05-09T11:48:31.944Z,29.42
2023-05-09T11:49:31.959Z,30.05
2023-05-09T11:50:31.984Z,29.83
2023-05-09T11:51:31.911Z,29.94
2023-05-09T11:52:31.904Z,29.94
2023-05-09T11:53:31.886Z,29.62
2023-05-09T11:54:31.904Z,29.21
2023-05-09T11:55:31.876Z,28.88
2023-05-09T11:56:31.856Z,28.36
2023-05-09T11:57:31.855Z,28.15
2023-05-09T11:58:31.869Z,27.53
2023-05-09T11:59:31.817Z,26.92
2023-05-09T12:00:31.832Z,26.72
2023-05-09T12:01:31.791Z,26.52
2023-05-09T12:02:31.836Z,26.91
2023-05-09T12:03:31.895Z,26.61
2023-05-09T12:04:31.858Z,26.12
2023-05-09T12:05:31.760Z,26.41
2023-05-09T12:06:31.740Z,26.42
2023-05-09T12:07:31.727Z,27.35
2023-05-09T12:08:31.740Z,27.76
2023-05-09T12:09:31.711Z,28.17
2023-05-09T12:10:31.745Z,27.76
2023-05-09T12:11:31.680Z,27.04
2023-05-09T12:12:31.679Z,26.96
2023-05-09T12:13:31.768Z,26.75
2023-05-09T12:14:31.680Z,26.64
2023-05-09T12:15:31.653Z,26.72
2023-05-09T12:16:31.662Z,26.21
2023-05-09T12:17:31.656Z,25.70
2023-05-09T12:18:31.673Z,25.99
2023-05-09T12:19:31.601Z,25.60
2023-05-09T12:20:31.603Z,25.51
2023-05-09T12:21:31.589Z,25.81
2023-05-09T12:22:31.564Z,26.01
2023-05-09T12:23:31.570Z,26.42
2023-05-09T12:24:31.565Z,26.62
2023-05-09T12:25:31.556Z,26.62
2023-05-09T12:26:31.553Z,26.29
2023-05-09T12:27:31.526Z,26.09
2023-05-09T12:28:31.511Z,26.51
2023-05-09T12:29:31.495Z,26.61
2023-05-09T12:30:31.507Z,26.89
2023-05-09T12:31:31.490Z,27.09
2023-05-09T12:32:31.547Z,26.59
2023-05-09T12:33:31.440Z,26.87
2023-05-09T12:34:31.438Z,25.96
2023-05-09T12:35:31.483Z,27.01
2023-05-09T12:36:31.418Z,26.68
2023-05-09T12:37:31.410Z,26.08
2023-05-09T12:38:31.455Z,26.20
2023-05-09T12:39:31.384Z,27.33
2023-05-09T12:40:31.397Z,27.22
2023-05-09T12:41:39.291Z,27.21
2023-05-09T12:42:31.364Z,26.70
2023-05-09T12:43:31.338Z,26.71
2023-05-09T12:44:31.322Z,27.42
2023-05-09T12:45:31.343Z,26.88
2023-05-09T12:46:31.325Z,26.17
2023-05-09T12:47:31.395Z,26.26
2023-05-09T12:48:31.282Z,25.35
2023-05-09T12:49:31.316Z,24.74
2023-05-09T12:50:31.288Z,24.55
2023-05-09T12:51:31.256Z,25.06
2023-05-09T12:52:31.251Z,25.15
2023-05-09T12:53:31.231Z,25.13
2023-05-09T12:54:31.898Z,24.62
2023-05-09T12:55:31.216Z,24.20
2023-05-09T12:56:31.200Z,24.59
2023-05-09T12:57:31.760Z,24.08
2023-05-09T12:58:31.209Z,24.39
2023-05-09T12:59:31.167Z,24.95
2023-05-09T13:00:31.245Z,25.24
2023-05-09T13:01:31.178Z,25.32
2023-05-09T13:02:31.194Z,24.71
2023-05-09T13:03:31.291Z,25.43
2023-05-09T13:04:31.119Z,25.24
2023-05-09T13:05:31.121Z,25.96
2023-05-09T13:06:31.087Z,25.36
2023-05-09T13:07:31.099Z,25.13
2023-05-09T13:08:31.082Z,25.01
2023-05-09T13:09:31.048Z,24.49
2023-05-09T13:10:31.092Z,24.59
2023-05-09T13:11:31.041Z,23.49
2023-05-09T13:12:31.020Z,23.58
2023-05-09T13:13:31.008Z,23.60
2023-05-09T13:14:31.055Z,23.71
2023-05-09T13:15:31.001Z,24.10
2023-05-09T13:16:31.101Z,24.10
2023-05-09T13:17:30.993Z,24.20
2023-05-09T13:18:30.960Z,24.82
2023-05-09T13:19:30.943Z,26.68
2023-05-09T13:20:30.941Z,27.42
2023-05-09T13:21:30.933Z,27.71
2023-05-09T13:22:30.934Z,27.50
2023-05-09T13:23:30.911Z,27.27
2023-05-09T13:24:30.918Z,25.54
2023-05-09T13:25:30.891Z,26.27
2023-05-09T13:26:30.944Z,25.55
2023-05-09T13:27:30.883Z,26.08
2023-05-09T13:28:30.850Z,26.08
2023-05-09T13:29:30.848Z,26.47
2023-05-09T13:30:30.866Z,26.06
2023-05-09T13:31:30.846Z,24.92
2023-05-09T13:32:30.829Z,25.23
2023-05-09T13:33:30.858Z,25.63
2023-05-09T13:34:30.798Z,25.95
2023-05-09T13:35:30.786Z,24.93
2023-05-09T13:36:30.766Z,24.62
2023-05-09T13:37:30.758Z,24.84
2023-05-09T13:38:30.793Z,24.84
2023-05-09T13:39:30.740Z,25.32
2023-05-09T13:40:31.201Z,24.80
2023-05-09T13:41:30.722Z,24.01
2023-05-09T13:42:30.722Z,24.39
2023-05-09T13:43:30.689Z,23.28
2023-05-09T13:44:30.720Z,23.37
2023-05-09T13:45:30.672Z,22.77
2023-05-09T13:46:30.723Z,23.39
2023-05-09T13:47:30.691Z,23.10
2023-05-09T13:48:30.652Z,23.41
2023-05-09T13:49:30.616Z,23.41
2023-05-09T13:50:30.627Z,24.21
2023-05-09T13:51:30.641Z,23.48
2023-05-09T13:52:30.613Z,23.30
2023-05-09T13:53:30.596Z,23.60
2023-05-09T13:54:30.582Z,23.90
2023-05-09T13:55:30.586Z,23.68
2023-05-09T13:56:30.568Z,23.07
2023-05-09T13:57:30.554Z,22.85
2023-05-09T13:58:30.562Z,22.77
2023-05-09T13:59:30.531Z,22.66
2023-05-09T14:00:30.571Z,22.75
2023-05-09T14:01:30.565Z,22.67
2023-05-09T14:02:30.544Z,23.10
2023-05-09T14:03:31.416Z,23.50
2023-05-09T14:04:30.481Z,24.02
2023-05-09T14:05:30.480Z,23.71
2023-05-09T14:06:30.481Z,23.50
2023-05-09T14:07:30.438Z,23.38
2023-05-09T14:08:30.449Z,22.86
2023-05-09T14:09:30.437Z,22.66
2023-05-09T14:10:30.428Z,22.56
2023-05-09T14:11:30.426Z,23.08
2023-05-09T14:12:30.417Z,23.30
2023-05-09T14:13:30.471Z,23.38
2023-05-09T14:14:30.518Z,23.07
2023-05-09T14:15:30.381Z,23.16
2023-05-09T14:16:30.449Z,22.26
2023-05-09T14:17:30.403Z,22.56
2023-05-09T14:18:30.340Z,22.67
2023-05-09T14:19:30.335Z,23.91
2023-05-09T14:20:30.319Z,24.21
2023-05-09T14:21:30.336Z,23.58
2023-05-09T14:22:30.352Z,22.86
2023-05-09T14:23:30.302Z,22.75
2023-05-09T14:24:30.283Z,22.96
2023-05-09T14:25:30.254Z,23.88
2023-05-09T14:26:30.286Z,23.68
2023-05-09T14:27:30.241Z,23.18
2023-05-09T14:28:30.229Z,22.86
2023-05-09T14:29:30.370Z,22.45
2023-05-09T14:30:30.210Z,22.47
2023-05-09T14:31:30.224Z,23.07
2023-05-09T14:32:30.196Z,23.60
2023-05-09T14:33:30.187Z,23.82
2023-05-09T14:34:30.178Z,24.02
2023-05-09T14:35:30.214Z,23.60
2023-05-09T14:36:30.184Z,22.47
2023-05-09T14:37:30.128Z,22.37
2023-05-09T14:38:30.131Z,22.45
2023-05-09T14:39:30.114Z,21.74
2023-05-09T14:40:30.139Z,21.74
2023-05-09T14:41:30.112Z,22.06
2023-05-09T14:42:30.106Z,22.06
2023-05-09T14:43:30.071Z,22.47
2023-05-09T14:44:30.067Z,24.04
2023-05-09T14:45:30.054Z,24.95
2023-05-09T14:46:30.091Z,24.55
2023-05-09T14:47:30.071Z,24.02
2023-05-09T14:48:30.029Z,23.50
2023-05-09T14:49:30.014Z,23.30
2023-05-09T14:50:30.009Z,23.21
2023-05-09T14:51:30.006Z,23.18
2023-05-09T14:52:29.982Z,22.89
2023-05-09T14:53:29.966Z,22.78
2023-05-09T14:54:29.967Z,23.10
2023-05-09T14:55:29.967Z,23.41
2023-05-09T14:56:29.956Z,24.65
2023-05-09T14:57:29.932Z,23.93
2023-05-09T14:58:29.922Z,23.72
2023-05-09T14:59:29.912Z,23.11
2023-05-09T15:00:30.106Z,23.41
2023-05-09T15:01:29.936Z,23.60
2023-05-09T15:02:29.956Z,22.99
2023-05-09T15:03:29.888Z,22.37
2023-05-09T15:04:29.926Z,22.06
2023-05-09T15:05:29.857Z,22.06
2023-05-09T15:06:29.848Z,22.16
2023-05-09T15:07:29.826Z,22.26
2023-05-09T15:08:29.844Z,23.30
2023-05-09T15:09:29.829Z,24.11
2023-05-09T15:10:29.816Z,23.69
2023-05-09T15:11:36.441Z,23.18
2023-05-09T15:12:29.852Z,22.77
2023-05-09T15:13:29.914Z,22.66
2023-05-09T15:14:29.799Z,22.34
2023-05-09T15:15:29.743Z,22.33
2023-05-09T15:16:29.788Z,22.88
2023-05-09T15:17:29.759Z,24.93
2023-05-09T15:18:29.730Z,24.60
2023-05-09T15:19:29.696Z,23.80
2023-05-09T15:20:29.695Z,23.91
2023-05-09T15:21:29.704Z,23.91
2023-05-09T15:22:29.671Z,24.02
2023-05-09T15:23:29.732Z,24.22
2023-05-09T15:24:29.712Z,24.43
2023-05-09T15:25:29.640Z,24.01
2023-05-09T15:26:29.678Z,23.60
2023-05-09T15:27:29.640Z,23.48
2023-05-09T15:28:29.688Z,23.49
2023-05-09T15:29:29.607Z,24.54
2023-05-09T15:30:29.623Z,25.24
2023-05-09T15:31:31.103Z,25.68
2023-05-09T15:32:29.610Z,26.39
2023-05-09T15:33:29.580Z,24.65
2023-05-09T15:34:29.553Z,24.43
2023-05-09T15:35:29.567Z,23.80
2023-05-09T15:36:29.607Z,23.39
2023-05-09T15:37:29.544Z,23.30
2023-05-09T15:38:29.531Z,23.49
2023-05-09T15:39:29.514Z,23.60
2023-05-09T15:40:29.547Z,22.99
2023-05-09T15:41:29.512Z,22.89
2023-05-09T15:42:29.479Z,23.91
2023-05-09T15:43:29.455Z,24.95
2023-05-09T15:44:29.656Z,25.15
2023-05-09T15:45:29.469Z,24.74
2023-05-09T15:46:29.543Z,25.15
2023-05-09T15:47:29.512Z,24.82
2023-05-09T15:48:29.411Z,24.39
2023-05-09T15:49:29.439Z,23.47
2023-05-09T15:50:29.383Z,23.90
2023-05-09T15:51:29.372Z,24.71
2023-05-09T15:52:29.493Z,23.90
2023-05-09T15:53:29.387Z,22.97
2023-05-09T15:54:29.391Z,23.11
2023-05-09T15:55:29.360Z,24.63
2023-05-09T15:56:29.320Z,24.43
2023-05-09T15:57:29.351Z,23.61
2023-05-09T15:58:29.306Z,24.55
2023-05-09T15:59:29.304Z,25.78
2023-05-09T16:00:29.298Z,26.27
2023-05-09T16:01:29.286Z,25.76
2023-05-09T16:02:29.349Z,25.76
2023-05-09T16:03:29.287Z,26.07
2023-05-09T16:04:29.235Z,26.68
2023-05-09T16:05:29.229Z,26.97
2023-05-09T16:06:29.242Z,25.73
2023-05-09T16:07:29.235Z,25.74
2023-05-09T16:08:29.205Z,25.86
2023-05-09T16:09:29.316Z,26.58
2023-05-09T16:10:29.189Z,25.87
2023-05-09T16:11:29.184Z,25.34
2023-05-09T16:12:29.150Z,24.71
2023-05-09T16:13:29.231Z,24.40
2023-05-09T16:14:29.169Z,23.88
2023-05-09T16:15:29.128Z,23.07
2023-05-09T16:16:29.148Z,23.16
2023-05-09T16:17:29.112Z,24.73
2023-05-09T16:18:29.097Z,24.71
2023-05-09T16:19:29.077Z,24.81
2023-05-09T16:20:29.081Z,24.51
2023-05-09T16:21:29.198Z,24.92
2023-05-09T16:22:29.060Z,24.84
2023-05-09T16:23:29.043Z,25.35
2023-05-09T16:24:29.041Z,25.12
2023-05-09T16:25:29.029Z,24.91
2023-05-09T16:26:29.014Z,25.87
2023-05-09T16:27:29.017Z,26.79
2023-05-09T16:28:28.999Z,26.57
2023-05-09T16:29:28.987Z,26.68
2023-05-09T16:30:28.954Z,26.25
2023-05-09T16:31:29.011Z,25.96
2023-05-09T16:32:29.025Z,26.37
2023-05-09T16:33:28.945Z,27.39
2023-05-09T16:34:28.964Z,28.12
2023-05-09T16:35:28.928Z,28.32
2023-05-09T16:36:28.923Z,28.84
2023-05-09T16:37:28.900Z,28.82
2023-05-09T16:38:28.885Z,28.72
2023-05-09T16:39:28.887Z,28.94
2023-05-09T16:40:28.922Z,29.27
2023-05-09T16:41:29.526Z,29.88
2023-05-09T16:42:28.881Z,30.10
2023-05-09T16:43:28.829Z,30.91
2023-05-09T16:44:28.822Z,30.81
2023-05-09T16:45:28.881Z,31.01
2023-05-09T16:46:28.808Z,31.33
2023-05-09T16:47:28.843Z,31.53
2023-05-09T16:48:28.772Z,31.54
2023-05-09T16:49:28.770Z,32.05
2023-05-09T16:50:28.767Z,32.06
2023-05-09T16:51:28.776Z,32.56
2023-05-09T16:52:28.748Z,32.67